Time;durP1;ratioP1;P1;durP2;ratioP2;P2;SDS_P1;SDS_P2;PMS_P1;PMS_P2;Temp;Humidity;BMP_temperature;BMP_pressure;BME280_temperature;BME280_humidity;BME280_pressure;Samples;Min_cycle;Max_cycle;Signal;HPM_P1;HPM_P2
2022/12/13 00:01:23;;;;;;;17.80;8.57;;;-3.30;99.90;;;;;;4404906;28;660991;-68
2022/12/13 00:04:11;;;;;;;19.47;9.60;;;-3.20;99.90;;;;;;4389124;28;658691;-68
2022/12/13 00:06:58;;;;;;;22.17;9.50;;;-3.30;99.90;;;;;;4410538;28;658098;-68
2022/12/13 00:09:47;;;;;;;19.88;9.48;;;-3.30;99.90;;;;;;4398542;28;658873;-67
2022/12/13 00:12:34;;;;;;;22.63;9.60;;;-3.30;99.90;;;;;;4412806;28;658901;-68
2022/12/13 00:15:21;;;;;;;24.57;9.97;;;-3.30;99.90;;;;;;4395400;28;658588;-69
2022/12/13 00:18:08;;;;;;;21.40;9.60;;;-3.30;99.90;;;;;;4415999;28;660438;-67
2022/12/13 00:20:55;;;;;;;17.27;7.25;;;-3.30;99.90;;;;;;4392191;28;658685;-68
2022/12/13 00:23:42;;;;;;;19.30;8.40;;;-3.40;99.90;;;;;;4418825;28;659655;-69
2022/12/13 00:26:31;;;;;;;18.90;7.97;;;-3.30;99.90;;;;;;4415652;28;658991;-69
2022/12/13 00:29:19;;;;;;;19.50;9.20;;;-3.30;99.90;;;;;;4383338;28;658310;-68
2022/12/13 00:32:06;;;;;;;19.67;9.30;;;-3.40;99.90;;;;;;4393645;28;658698;-69
2022/12/13 00:34:53;;;;;;;19.55;9.45;;;-3.40;99.90;;;;;;4409467;28;659410;-68
2022/12/13 00:37:40;;;;;;;23.87;10.40;;;-3.40;99.90;;;;;;4393468;28;659437;-68
2022/12/13 00:40:28;;;;;;;21.83;9.10;;;-3.50;99.90;;;;;;4415600;28;661590;-68
2022/12/13 00:43:17;;;;;;;24.93;10.77;;;-3.40;99.90;;;;;;4393119;28;659413;-68
2022/12/13 00:46:04;;;;;;;20.43;9.80;;;-3.40;99.90;;;;;;4407199;28;661820;-68
2022/12/13 00:48:52;;;;;;;13.88;7.18;;;-3.50;99.90;;;;;;4391000;28;658802;-69
2022/12/13 00:51:39;;;;;;;17.57;8.53;;;-3.40;99.90;;;;;;4413550;28;658124;-68
2022/12/13 00:54:26;;;;;;;13.17;4.53;;;-3.50;99.90;;;;;;4393976;28;659154;-68
2022/12/13 00:57:14;;;;;;;19.50;8.90;;;-3.50;99.90;;;;;;4406784;28;658957;-68
2022/12/13 01:00:03;;;;;;;13.37;6.97;;;-3.50;99.90;;;;;;4390835;28;658626;-68
2022/12/13 01:02:50;;;;;;;24.10;10.10;;;-3.40;99.90;;;;;;4401221;28;658720;-68
2022/12/13 01:05:37;;;;;;;17.67;8.50;;;-3.40;99.90;;;;;;4411393;28;661164;-68
2022/12/13 01:08:24;;;;;;;13.83;6.97;;;-3.40;99.90;;;;;;4412190;28;659732;-68
2022/12/13 01:11:12;;;;;;;15.83;8.07;;;-3.40;99.90;;;;;;4392312;28;660181;-68
2022/12/13 01:13:59;;;;;;;23.97;9.73;;;-3.50;99.90;;;;;;4410857;28;658573;-68
2022/12/13 01:16:48;;;;;;;18.75;8.35;;;-3.50;99.90;;;;;;4394055;28;658463;-69
2022/12/13 01:19:35;;;;;;;15.77;7.93;;;-3.70;99.90;;;;;;4406985;28;658658;-68
2022/12/13 01:22:22;;;;;;;13.60;5.07;;;-3.70;99.90;;;;;;4420005;28;658239;-68
2022/12/13 01:25:09;;;;;;;15.87;7.60;;;-3.70;99.90;;;;;;4415074;28;661634;-68
2022/12/13 01:27:57;;;;;;;14.90;6.80;;;-3.70;99.90;;;;;;4393880;28;658621;-69
2022/12/13 01:30:44;;;;;;;15.37;7.03;;;-3.70;99.90;;;;;;4415027;28;658711;-68
2022/12/13 01:33:32;;;;;;;15.27;7.93;;;-3.70;99.90;;;;;;4396126;28;658470;-68
2022/12/13 01:36:21;;;;;;;14.33;6.43;;;-3.80;99.90;;;;;;4412669;28;660621;-68
2022/12/13 01:39:09;;;;;;;12.43;4.90;;;-3.90;99.90;;;;;;4385416;28;659388;-69
2022/12/13 01:41:58;;;;;;;11.93;6.20;;;-3.90;99.90;;;;;;4392849;28;658583;-68
2022/12/13 01:45:07;;;;;;;14.00;6.60;;;-3.90;99.90;;;;;;4387502;28;659520;-66
2022/12/13 01:47:55;;;;;;;13.43;5.83;;;-3.80;99.90;;;;;;4386191;28;658787;-68
2022/12/13 01:50:46;;;;;;;14.10;6.25;;;-3.90;99.90;;;;;;4394244;28;659827;-68
2022/12/13 01:53:35;;;;;;;19.33;7.93;;;-3.90;99.90;;;;;;4392513;28;659473;-68
2022/12/13 01:56:24;;;;;;;6.10;3.23;;;-3.80;99.90;;;;;;4384143;28;660854;-68
2022/12/13 01:59:11;;;;;;;13.97;6.50;;;-3.80;99.90;;;;;;4389293;28;658978;-68
2022/12/13 02:01:59;;;;;;;17.00;7.77;;;-3.80;99.90;;;;;;4410307;28;659515;-68
2022/12/13 02:04:49;;;;;;;16.23;7.40;;;-3.90;99.90;;;;;;4387530;28;658543;-68
2022/12/13 02:07:39;;;;;;;15.07;7.10;;;-3.90;99.90;;;;;;4387422;28;658938;-68
2022/12/13 02:10:27;;;;;;;13.73;6.10;;;-3.90;99.90;;;;;;4395206;28;659196;-68
2022/12/13 02:13:14;;;;;;;11.83;5.97;;;-3.90;99.90;;;;;;4411249;28;658482;-69
2022/12/13 02:16:05;;;;;;;17.88;7.78;;;-3.90;99.90;;;;;;4390022;28;659683;-68
2022/12/13 02:18:58;;;;;;;19.13;7.73;;;-3.90;99.90;;;;;;4390375;28;659789;-68
2022/12/13 02:21:47;;;;;;;11.97;6.40;;;-4.00;99.90;;;;;;4368212;28;658485;-68
2022/12/13 02:24:47;;;;;;;14.37;7.10;;;-4.00;99.90;;;;;;4404705;28;659284;-68
2022/12/13 02:27:46;;;;;;;14.63;6.60;;;-3.90;99.90;;;;;;4384841;28;659168;-68
2022/12/13 02:30:37;;;;;;;17.07;7.43;;;-4.00;99.90;;;;;;4386039;28;659171;-69
2022/12/13 02:33:33;;;;;;;17.93;6.80;;;-4.00;99.90;;;;;;4390822;28;659653;-68
2022/12/13 02:36:23;;;;;;;9.20;4.35;;;-4.00;99.90;;;;;;4391426;28;658658;-68
2022/12/13 02:39:11;;;;;;;14.65;7.05;;;-3.90;99.90;;;;;;4390163;28;657464;-68
2022/12/13 02:42:00;;;;;;;17.23;6.93;;;-3.90;99.90;;;;;;4412294;28;659686;-67
2022/12/13 02:44:50;;;;;;;19.00;7.40;;;-3.90;99.90;;;;;;4391390;28;659555;-68
2022/12/13 02:47:40;;;;;;;15.90;7.28;;;-4.00;99.90;;;;;;4387622;28;659030;-69
2022/12/13 02:50:27;;;;;;;13.60;6.73;;;-4.00;99.90;;;;;;4385556;28;659261;-69
2022/12/13 02:53:17;;;;;;;14.40;6.97;;;-4.00;99.90;;;;;;4408111;28;659762;-68
2022/12/13 02:56:09;;;;;;;14.85;6.88;;;-4.10;99.90;;;;;;4382380;28;659459;-67
2022/12/13 02:59:00;;;;;;;14.63;7.10;;;-4.10;99.90;;;;;;4386514;28;658666;-69
2022/12/13 03:02:00;;;;;;;12.37;6.33;;;-4.00;99.90;;;;;;4762664;28;660619;-68
2022/12/13 03:08:07;;;;;;;14.17;6.10;;;-4.10;99.90;;;;;;4386121;28;658585;-69
2022/12/13 03:11:06;;;;;;;12.10;5.70;;;-4.00;99.90;;;;;;4386235;28;658180;-68
2022/12/13 03:13:55;;;;;;;14.97;7.10;;;-4.00;99.90;;;;;;4389457;28;659491;-68
2022/12/13 03:16:46;;;;;;;15.10;5.83;;;-4.00;99.90;;;;;;4381516;28;660097;-68
2022/12/13 03:19:36;;;;;;;15.23;6.70;;;-4.00;99.90;;;;;;4384256;28;659106;-68
2022/12/13 03:22:29;;;;;;;13.57;5.97;;;-4.00;99.90;;;;;;4386824;28;660613;-68
2022/12/13 03:25:19;;;;;;;12.80;6.43;;;-4.00;99.90;;;;;;4365179;28;661178;-68
2022/12/13 03:28:09;;;;;;;15.77;6.13;;;-4.10;99.90;;;;;;4390106;28;658532;-68
2022/12/13 03:31:00;;;;;;;17.60;6.53;;;-4.10;99.90;;;;;;4382955;28;659723;-68
2022/12/13 03:33:50;;;;;;;15.30;6.90;;;-4.10;99.90;;;;;;4394779;28;660176;-68
2022/12/13 03:36:42;;;;;;;10.37;4.87;;;-4.00;99.90;;;;;;4381845;28;659117;-68
2022/12/13 03:39:36;;;;;;;16.27;6.90;;;-4.00;99.90;;;;;;4408890;28;658928;-69
2022/12/13 03:42:26;;;;;;;17.23;7.20;;;-4.10;99.90;;;;;;4376899;28;659306;-69
2022/12/13 03:45:19;;;;;;;15.43;6.70;;;-4.10;99.90;;;;;;4370546;28;659212;-68
2022/12/13 03:48:10;;;;;;;18.83;7.40;;;-4.10;99.90;;;;;;4368233;28;659098;-69
2022/12/13 03:51:01;;;;;;;12.97;5.43;;;-4.10;99.90;;;;;;4371189;28;660470;-68
2022/12/13 03:53:52;;;;;;;15.90;6.87;;;-4.20;99.90;;;;;;4368913;28;658645;-68
2022/12/13 03:56:44;;;;;;;16.40;6.80;;;-4.20;99.90;;;;;;4372605;28;658923;-68
2022/12/13 03:59:35;;;;;;;12.57;5.70;;;-4.20;99.90;;;;;;4351358;28;662651;-69
2022/12/13 04:02:26;;;;;;;15.37;7.17;;;-4.10;99.90;;;;;;4369471;28;660133;-68
2022/12/13 04:05:17;;;;;;;13.20;6.33;;;-4.20;99.90;;;;;;4367785;28;659133;-68
2022/12/13 04:08:08;;;;;;;16.50;6.47;;;-4.20;99.90;;;;;;4365070;28;659013;-68
2022/12/13 04:10:58;;;;;;;18.43;6.87;;;-4.10;99.90;;;;;;4362458;28;659834;-67
2022/12/13 04:13:53;;;;;;;14.50;6.23;;;-4.10;99.90;;;;;;4379561;28;660333;-68
2022/12/13 04:16:44;;;;;;;16.58;7.05;;;-4.00;99.90;;;;;;4371872;28;659396;-68
2022/12/13 04:19:33;;;;;;;16.70;7.90;;;-4.10;99.90;;;;;;4376767;28;658704;-68
2022/12/13 04:22:24;;;;;;;19.67;7.80;;;-4.10;99.90;;;;;;4373334;28;658822;-69
2022/12/13 04:25:15;;;;;;;16.50;7.07;;;-4.10;99.90;;;;;;4370917;28;658936;-69
2022/12/13 04:28:05;;;;;;;18.67;9.03;;;-4.20;99.90;;;;;;4368815;28;659618;-69
2022/12/13 04:30:57;;;;;;;20.93;9.00;;;-4.10;99.90;;;;;;4366182;28;660695;-68
2022/12/13 04:33:48;;;;;;;22.10;9.77;;;-4.20;99.90;;;;;;4393810;28;659059;-68
2022/12/13 04:36:39;;;;;;;21.13;10.03;;;-4.10;99.90;;;;;;4349435;28;659529;-68
2022/12/13 04:39:29;;;;;;;22.43;10.70;;;-4.00;99.90;;;;;;4369245;28;659748;-68
2022/12/13 04:42:20;;;;;;;22.53;10.53;;;-3.90;99.90;;;;;;4373356;28;659374;-68
2022/12/13 04:45:11;;;;;;;22.03;10.27;;;-4.10;99.90;;;;;;4387657;28;660831;-69
2022/12/13 04:48:03;;;;;;;22.53;10.00;;;-4.00;99.90;;;;;;4387447;28;660728;-69
2022/12/13 04:50:54;;;;;;;25.83;12.03;;;-4.00;99.90;;;;;;4365665;28;660219;-67
2022/12/13 04:53:44;;;;;;;25.87;12.70;;;-4.00;99.90;;;;;;4389708;28;659599;-69
2022/12/13 04:56:37;;;;;;;22.43;8.10;;;-4.00;99.90;;;;;;4387312;28;659371;-67
2022/12/13 04:59:28;;;;;;;31.80;13.37;;;-4.10;99.90;;;;;;4405540;28;658650;-68
2022/12/13 05:02:19;;;;;;;31.17;15.17;;;-4.10;99.90;;;;;;4845914;28;661204;-67
2022/12/13 05:05:10;;;;;;;35.93;15.67;;;-4.10;99.90;;;;;;4387283;28;660965;-68
2022/12/13 05:07:59;;;;;;;28.07;11.83;;;-4.20;99.90;;;;;;4387685;28;660888;-68
2022/12/13 05:10:49;;;;;;;34.30;15.37;;;-4.30;99.90;;;;;;4386462;28;660842;-68
2022/12/13 05:13:37;;;;;;;33.17;15.20;;;-4.30;99.90;;;;;;4383609;28;659651;-69
2022/12/13 05:16:25;;;;;;;37.67;15.20;;;-4.20;99.90;;;;;;4408739;28;659836;-68
2022/12/13 05:19:12;;;;;;;29.03;12.30;;;-4.20;99.90;;;;;;4409927;28;659674;-68
2022/12/13 05:22:01;;;;;;;33.80;14.43;;;-4.30;99.90;;;;;;4408221;28;659636;-69
2022/12/13 05:24:50;;;;;;;39.70;15.67;;;-4.20;99.90;;;;;;4388903;28;660131;-68
2022/12/13 05:27:37;;;;;;;36.90;15.17;;;-4.20;99.90;;;;;;4382331;28;661504;-67
2022/12/13 05:30:27;;;;;;;37.07;16.13;;;-4.20;99.90;;;;;;4399437;28;659668;-67
2022/12/13 05:33:17;;;;;;;32.67;15.40;;;-4.20;99.90;;;;;;4402481;28;659811;-68
2022/12/13 05:36:05;;;;;;;38.97;15.90;;;-4.20;99.90;;;;;;4410234;28;659418;-68
2022/12/13 05:38:56;;;;;;;41.37;17.57;;;-4.30;99.90;;;;;;4385405;28;660714;-68
2022/12/13 05:41:45;;;;;;;42.40;18.03;;;-4.30;99.90;;;;;;4387598;28;660518;-68
2022/12/13 05:44:35;;;;;;;41.13;17.75;;;-4.20;99.90;;;;;;4380633;28;661198;-68
2022/12/13 05:47:24;;;;;;;35.40;15.70;;;-4.20;99.90;;;;;;4380806;28;660045;-68
2022/12/13 05:50:12;;;;;;;35.77;16.43;;;-4.30;99.90;;;;;;4379036;28;660266;-69
2022/12/13 05:53:01;;;;;;;34.60;16.50;;;-4.30;99.90;;;;;;4394431;28;660352;-69
2022/12/13 05:55:50;;;;;;;31.53;14.70;;;-4.20;99.90;;;;;;4371498;28;660000;-68
2022/12/13 05:58:40;;;;;;;27.47;11.23;;;-4.30;99.90;;;;;;4378146;28;660497;-69
2022/12/13 06:01:27;;;;;;;30.73;13.77;;;-4.40;99.90;;;;;;4376347;28;660151;-68
2022/12/13 06:04:14;;;;;;;26.03;11.47;;;-4.30;99.90;;;;;;4393917;28;659663;-68
2022/12/13 06:07:02;;;;;;;28.73;13.00;;;-4.30;99.90;;;;;;4377976;28;660067;-69
2022/12/13 06:09:49;;;;;;;27.83;12.67;;;-4.40;99.90;;;;;;4391727;28;659322;-67
2022/12/13 06:12:38;;;;;;;30.77;12.67;;;-4.30;99.90;;;;;;4373288;28;659589;-68
2022/12/13 06:15:25;;;;;;;32.90;14.77;;;-4.20;99.90;;;;;;4379472;28;660602;-68
2022/12/13 06:18:13;;;;;;;16.77;7.53;;;-4.20;99.90;;;;;;4394919;28;661438;-68
2022/12/13 06:21:01;;;;;;;13.20;6.40;;;-4.20;99.90;;;;;;4396440;28;658610;-67
2022/12/13 06:23:48;;;;;;;34.67;15.85;;;-4.20;99.90;;;;;;4400474;28;660336;-68
2022/12/13 06:26:35;;;;;;;35.97;14.73;;;-4.40;99.90;;;;;;4376965;28;659322;-68
2022/12/13 06:29:24;;;;;;;47.07;17.77;;;-4.40;99.90;;;;;;4402570;28;660797;-67
2022/12/13 06:32:11;;;;;;;39.10;17.57;;;-4.40;99.90;;;;;;4380146;28;660062;-69
2022/12/13 06:34:58;;;;;;;29.80;13.60;;;-4.40;99.90;;;;;;4396938;28;660706;-68
2022/12/13 06:37:45;;;;;;;17.23;7.43;;;-4.40;99.90;;;;;;4377946;28;660135;-67
2022/12/13 06:40:33;;;;;;;41.90;17.07;;;-4.40;99.90;;;;;;4392529;28;660539;-67
2022/12/13 06:43:20;;;;;;;21.17;8.17;;;-4.50;99.90;;;;;;4375037;28;659479;-66
2022/12/13 06:46:09;;;;;;;40.60;15.80;;;-4.40;99.90;;;;;;4400237;28;659496;-66
2022/12/13 06:48:58;;;;;;;33.43;15.33;;;-4.40;99.90;;;;;;4370076;28;661059;-65
2022/12/13 06:51:48;;;;;;;41.00;14.83;;;-4.50;99.90;;;;;;4369520;28;660049;-67
2022/12/13 06:54:35;;;;;;;32.97;14.73;;;-4.40;99.90;;;;;;4374654;28;659448;-67
2022/12/13 06:57:22;;;;;;;34.23;14.43;;;-4.40;99.90;;;;;;4392170;28;660634;-66
2022/12/13 07:00:12;;;;;;;30.93;13.10;;;-4.40;99.90;;;;;;4396516;28;659456;-66
2022/12/13 07:03:00;;;;;;;15.00;6.30;;;-4.40;99.90;;;;;;4841198;28;536345;-65
2022/12/13 07:05:47;;;;;;;39.67;16.63;;;-4.40;99.90;;;;;;4367255;28;659594;-65
2022/12/13 07:08:35;;;;;;;37.30;16.33;;;-4.40;99.90;;;;;;4389404;28;660015;-65
2022/12/13 07:11:23;;;;;;;30.33;11.98;;;-4.40;99.90;;;;;;4371263;28;660112;-66
2022/12/13 07:14:10;;;;;;;37.10;16.27;;;-4.40;99.90;;;;;;4370012;28;659740;-66
2022/12/13 07:16:58;;;;;;;34.60;14.87;;;-4.40;99.90;;;;;;4394740;28;660703;-66
2022/12/13 07:19:47;;;;;;;35.60;15.10;;;-4.30;99.90;;;;;;4369426;28;659581;-66
2022/12/13 07:22:34;;;;;;;26.00;9.70;;;-4.40;99.90;;;;;;4396693;28;659729;-65
2022/12/13 07:25:22;;;;;;;34.40;14.03;;;-4.30;99.90;;;;;;4375667;28;659809;-66
2022/12/13 07:28:09;;;;;;;34.37;14.70;;;-4.40;99.90;;;;;;4392586;28;660196;-65
2022/12/13 07:30:56;;;;;;;37.80;15.93;;;-4.30;99.90;;;;;;4366163;28;660519;-67
2022/12/13 07:33:43;;;;;;;21.03;8.23;;;-4.20;99.90;;;;;;4394690;28;661427;-66
2022/12/13 07:36:32;;;;;;;29.90;13.70;;;-4.30;99.90;;;;;;4373927;28;658979;-66
2022/12/13 07:39:19;;;;;;;26.73;13.57;;;-4.20;99.90;;;;;;4391328;28;660966;-65
2022/12/13 07:42:06;;;;;;;31.77;14.43;;;-4.20;99.90;;;;;;4371035;28;659799;-66
2022/12/13 07:44:53;;;;;;;31.20;14.17;;;-4.10;99.90;;;;;;4395160;28;660358;-66
2022/12/13 07:47:40;;;;;;;35.58;15.93;;;-4.10;99.90;;;;;;4382612;28;659822;-65
2022/12/13 07:50:27;;;;;;;33.37;11.93;;;-4.00;99.90;;;;;;4400108;28;659732;-66
2022/12/13 07:53:16;;;;;;;29.33;12.83;;;-4.00;99.90;;;;;;4389404;28;660152;-67
2022/12/13 07:56:03;;;;;;;30.20;13.10;;;-4.00;99.90;;;;;;4366765;28;660400;-66
2022/12/13 07:58:50;;;;;;;36.80;14.63;;;-4.10;99.90;;;;;;4364794;28;659448;-66
2022/12/13 08:01:37;;;;;;;33.40;14.47;;;-4.10;99.90;;;;;;4396639;28;659450;-66
2022/12/13 08:04:25;;;;;;;29.40;11.63;;;-4.30;99.90;;;;;;4392794;28;658967;-66
2022/12/13 08:07:12;;;;;;;30.30;13.00;;;-4.10;99.90;;;;;;4393428;28;660958;-65
2022/12/13 08:10:01;;;;;;;28.70;12.33;;;-4.10;99.90;;;;;;4389030;28;660120;-67
2022/12/13 08:12:49;;;;;;;35.30;15.07;;;-4.10;99.90;;;;;;4394751;28;660287;-66
2022/12/13 08:15:36;;;;;;;26.52;12.23;;;-4.10;99.90;;;;;;4369919;28;659448;-66
2022/12/13 08:18:23;;;;;;;25.10;11.27;;;-3.90;99.90;;;;;;4390513;28;660791;-66
2022/12/13 08:21:11;;;;;;;28.77;13.47;;;-3.90;99.90;;;;;;4370488;28;659731;-67
2022/12/13 08:23:58;;;;;;;29.53;13.97;;;-3.70;99.90;;;;;;4391919;28;660396;-66
2022/12/13 08:26:47;;;;;;;34.88;15.27;;;-3.50;99.90;;;;;;4376133;28;659900;-66
2022/12/13 08:29:35;;;;;;;25.07;11.60;;;-3.80;99.90;;;;;;4388315;28;659471;-65
2022/12/13 08:32:22;;;;;;;36.47;14.83;;;-3.80;99.90;;;;;;4369599;28;660437;-65
2022/12/13 08:35:09;;;;;;;31.60;13.75;;;-3.90;99.90;;;;;;4383181;28;659723;-66
2022/12/13 08:37:56;;;;;;;31.87;11.77;;;-3.80;99.90;;;;;;4369646;28;660045;-67
2022/12/13 08:40:43;;;;;;;24.17;9.73;;;-3.90;99.90;;;;;;4390109;28;659973;-65
2022/12/13 08:43:32;;;;;;;31.13;14.03;;;-3.90;99.90;;;;;;4382658;28;658890;-66
2022/12/13 08:46:19;;;;;;;21.50;10.23;;;-3.80;99.90;;;;;;4409832;28;660272;-66
2022/12/13 08:49:06;;;;;;;23.60;11.10;;;-4.00;99.90;;;;;;4384096;28;659578;-67
2022/12/13 08:51:53;;;;;;;32.83;13.37;;;-4.00;99.90;;;;;;4410384;28;661021;-66
2022/12/13 08:54:43;;;;;;;18.17;7.47;;;-3.90;99.90;;;;;;4389016;28;659690;-66
2022/12/13 08:57:30;;;;;;;38.07;13.00;;;-3.80;99.90;;;;;;4400555;28;658781;-67
2022/12/13 09:00:19;;;;;;;29.23;13.17;;;-3.80;99.90;;;;;;4454947;28;660191;-66
2022/12/13 09:03:07;;;;;;;25.40;10.33;;;-3.80;99.90;;;;;;4819611;28;537884;-66
2022/12/13 09:05:54;;;;;;;33.63;14.43;;;-3.90;99.90;;;;;;4412679;28;660949;-66
2022/12/13 09:08:41;;;;;;;32.67;14.53;;;-3.80;99.90;;;;;;4401782;28;659835;-66
2022/12/13 09:11:28;;;;;;;32.67;14.63;;;-3.60;99.90;;;;;;4407200;28;660839;-67
2022/12/13 09:14:16;;;;;;;35.53;15.77;;;-3.40;99.90;;;;;;4388164;28;659611;-66
2022/12/13 09:17:05;;;;;;;34.47;14.87;;;-3.40;99.90;;;;;;4403678;28;660651;-67
2022/12/13 09:19:52;;;;;;;20.97;8.53;;;-3.30;99.90;;;;;;4390163;28;660130;-66
2022/12/13 09:22:40;;;;;;;22.50;10.27;;;-3.40;99.90;;;;;;4415821;28;658929;-67
2022/12/13 09:25:27;;;;;;;26.03;12.07;;;-3.50;99.90;;;;;;4391842;28;660317;-66
2022/12/13 09:28:14;;;;;;;28.43;12.10;;;-3.80;99.90;;;;;;4415127;28;660177;-66
2022/12/13 09:31:02;;;;;;;26.77;12.37;;;-3.90;99.90;;;;;;4385910;28;659601;-66
2022/12/13 09:33:50;;;;;;;26.97;11.33;;;-3.70;99.90;;;;;;4409461;28;659920;-66
2022/12/13 09:36:38;;;;;;;23.03;11.23;;;-3.60;99.90;;;;;;4382491;28;661093;-67
2022/12/13 09:39:25;;;;;;;19.10;9.47;;;-3.50;99.90;;;;;;4396005;28;659605;-67
2022/12/13 09:42:18;;;;;;;23.70;10.73;;;-3.50;99.90;;;;;;4414663;28;658812;-66
2022/12/13 09:45:06;;;;;;;21.63;8.00;;;-3.40;99.90;;;;;;4365107;28;659557;-67
2022/12/13 09:47:53;;;;;;;12.67;5.33;;;-3.50;99.90;;;;;;4408931;28;660342;-65
2022/12/13 09:50:42;;;;;;;18.23;9.27;;;-3.40;99.90;;;;;;4390809;28;658545;-66
2022/12/13 09:53:29;;;;;;;18.40;9.13;;;-3.40;99.90;;;;;;4408526;28;659136;-67
2022/12/13 09:56:16;;;;;;;14.02;7.05;;;-3.40;99.90;;;;;;4395593;28;658249;-66
2022/12/13 09:59:03;;;;;;;19.93;9.87;;;-3.80;99.90;;;;;;4417463;28;662502;-66
2022/12/13 10:01:50;;;;;;;17.73;6.67;;;-3.70;99.90;;;;;;4387506;28;658613;-66
2022/12/13 10:04:38;;;;;;;12.33;5.87;;;-3.80;99.90;;;;;;4405603;28;660082;-66
2022/12/13 10:07:26;;;;;;;6.73;3.70;;;-3.50;99.90;;;;;;4403705;28;658288;-67
2022/12/13 10:10:14;;;;;;;13.67;6.07;;;-3.50;99.90;;;;;;4415771;28;658142;-65
2022/12/13 10:13:06;;;;;;;17.30;8.10;;;-3.70;99.90;;;;;;4395361;28;660799;-67
2022/12/13 10:15:56;;;;;;;17.10;7.30;;;-3.70;99.90;;;;;;4388243;28;661603;-67
2022/12/13 10:18:44;;;;;;;13.87;7.90;;;-3.70;99.90;;;;;;4386127;28;660150;-66
2022/12/13 10:21:34;;;;;;;17.20;7.50;;;-3.70;99.90;;;;;;4389116;28;660608;-66
2022/12/13 10:24:24;;;;;;;16.80;7.77;;;-3.50;99.90;;;;;;4386900;28;659252;-66
2022/12/13 10:27:12;;;;;;;18.07;7.67;;;-3.60;99.90;;;;;;4389206;28;659815;-66
2022/12/13 10:30:00;;;;;;;18.93;6.80;;;-3.50;99.90;;;;;;4403385;28;660051;-66
2022/12/13 10:32:52;;;;;;;15.30;6.77;;;-3.60;99.90;;;;;;4394093;28;659709;-66
2022/12/13 10:35:40;;;;;;;12.17;5.90;;;-3.50;99.90;;;;;;4380775;28;660916;-66
2022/12/13 10:38:28;;;;;;;11.80;6.10;;;-3.80;99.90;;;;;;4395499;28;659877;-66
2022/12/13 10:41:28;;;;;;;12.30;6.00;;;-4.00;99.90;;;;;;4394563;28;660163;-66
2022/12/13 10:44:24;;;;;;;10.43;4.63;;;-3.90;99.90;;;;;;4365623;28;659628;-66
2022/12/13 10:47:15;;;;;;;15.63;4.97;;;-4.10;99.90;;;;;;4363671;28;659807;-66
2022/12/13 10:50:03;;;;;;;14.40;6.43;;;-3.80;99.90;;;;;;4380452;28;660759;-66
2022/12/13 10:52:50;;;;;;;14.60;6.53;;;-3.80;99.90;;;;;;4392105;28;659544;-67
2022/12/13 10:55:37;;;;;;;13.57;5.97;;;-3.70;99.90;;;;;;4408869;28;661304;-67
2022/12/13 10:58:34;;;;;;;14.63;5.77;;;-3.80;99.90;;;;;;4405654;28;661185;-67
2022/12/13 11:01:22;;;;;;;12.97;6.23;;;-3.80;99.90;;;;;;4639397;28;660372;-67
2022/12/13 11:04:24;;;;;;;12.20;6.03;;;-3.80;99.90;;;;;;4593054;28;589219;-67
2022/12/13 11:07:22;;;;;;;15.73;7.87;;;-3.70;99.90;;;;;;4388728;28;659573;-68
2022/12/13 11:10:16;;;;;;;17.77;8.23;;;-3.40;99.90;;;;;;4387780;28;660139;-67
2022/12/13 11:13:05;;;;;;;20.92;8.88;;;-3.30;99.90;;;;;;4386290;28;660858;-67
2022/12/13 11:15:56;;;;;;;21.93;9.30;;;-3.70;99.90;;;;;;4384768;28;660764;-67
2022/12/13 11:18:43;;;;;;;24.35;10.07;;;-3.50;99.90;;;;;;4392129;28;660651;-67
2022/12/13 11:21:32;;;;;;;24.77;10.57;;;-3.60;99.90;;;;;;4391365;28;660331;-67
2022/12/13 11:24:21;;;;;;;25.37;11.37;;;-3.50;99.90;;;;;;4406196;28;660963;-66
2022/12/13 11:27:19;;;;;;;34.53;12.93;;;-3.50;99.90;;;;;;4382940;28;661509;-67
2022/12/13 11:30:12;;;;;;;32.83;13.13;;;-3.30;99.90;;;;;;4387113;28;661382;-67
2022/12/13 11:33:13;;;;;;;30.90;13.30;;;-2.80;99.90;;;;;;4381629;28;662235;-67
2022/12/13 11:36:07;;;;;;;27.70;12.47;;;-2.70;99.90;;;;;;4361504;28;661132;-67
2022/12/13 11:39:03;;;;;;;29.20;13.70;;;-1.70;99.90;;;;;;4381810;28;660387;-67
2022/12/13 11:41:54;;;;;;;27.47;12.77;;;-1.00;99.90;;;;;;4362400;28;660830;-67
2022/12/13 11:44:43;;;;;;;27.70;12.70;;;-0.80;99.90;;;;;;4388444;28;662181;-67
2022/12/13 11:47:34;;;;;;;28.35;12.38;;;-0.70;99.90;;;;;;4387757;28;661237;-68
2022/12/13 11:50:25;;;;;;;21.53;9.37;;;0.30;99.90;;;;;;4385773;28;660707;-67
2022/12/13 11:53:22;;;;;;;18.07;8.00;;;1.60;99.90;;;;;;4390800;28;659330;-68
2022/12/13 11:56:15;;;;;;;26.73;12.67;;;0.80;96.50;;;;;;4360285;28;658297;-67
2022/12/13 11:59:06;;;;;;;22.00;10.70;;;-0.80;99.90;;;;;;4380904;28;661107;-67
2022/12/13 12:01:55;;;;;;;25.83;11.50;;;-0.90;99.90;;;;;;4386458;28;661949;-66
2022/12/13 12:04:45;;;;;;;26.83;11.50;;;-1.40;99.90;;;;;;4384281;28;661863;-66
2022/12/13 12:07:38;;;;;;;28.63;11.40;;;-1.80;99.90;;;;;;4385236;28;661159;-67
2022/12/13 12:10:28;;;;;;;25.97;11.60;;;-2.30;99.90;;;;;;4375869;28;660775;-67
2022/12/13 12:13:18;;;;;;;24.63;11.33;;;-2.20;99.90;;;;;;4386403;28;660986;-67
2022/12/13 12:16:08;;;;;;;21.33;8.57;;;-2.30;99.90;;;;;;4400600;28;661743;-68
2022/12/13 12:18:55;;;;;;;23.37;10.87;;;-2.50;99.90;;;;;;4385803;28;659960;-67
2022/12/13 12:21:54;;;;;;;14.00;6.17;;;-2.80;99.90;;;;;;4409327;28;660656;-66
2022/12/13 12:24:50;;;;;;;22.17;9.43;;;-3.00;99.90;;;;;;4360559;28;661230;-67
2022/12/13 12:27:40;;;;;;;20.02;8.00;;;-3.00;99.90;;;;;;4388158;28;659967;-66
2022/12/13 12:30:32;;;;;;;24.10;9.77;;;-3.10;99.90;;;;;;4383344;28;661648;-66
2022/12/13 12:33:24;;;;;;;19.03;8.23;;;-3.20;99.90;;;;;;4384703;28;659856;-66
2022/12/13 12:36:17;;;;;;;23.03;9.60;;;-3.10;99.90;;;;;;4369571;28;659718;-67
2022/12/13 12:39:32;;;;;;;23.33;10.23;;;-3.10;99.90;;;;;;4408368;28;660407;-67
2022/12/13 12:42:46;;;;;;;32.77;10.97;;;-3.20;99.90;;;;;;4389167;28;661075;-67
2022/12/13 12:45:39;;;;;;;26.03;10.83;;;-3.50;99.90;;;;;;4387586;28;660955;-67
2022/12/13 12:48:52;;;;;;;26.03;10.90;;;-3.50;99.90;;;;;;4387102;28;660600;-66
2022/12/13 12:51:44;;;;;;;24.93;9.83;;;-3.50;99.90;;;;;;4357226;28;660254;-66
2022/12/13 12:54:41;;;;;;;19.17;8.93;;;-3.40;99.90;;;;;;4382657;28;660175;-67
2022/12/13 12:57:36;;;;;;;15.37;7.00;;;-3.60;99.90;;;;;;4386407;28;659814;-66
2022/12/13 13:00:24;;;;;;;19.67;7.67;;;-3.40;99.90;;;;;;4438425;28;659755;-66
2022/12/13 13:03:16;;;;;;;12.60;5.50;;;-3.60;99.90;;;;;;4801144;28;536388;-66
2022/12/13 13:06:06;;;;;;;20.67;9.03;;;-3.50;99.90;;;;;;4382196;28;662026;-66
2022/12/13 13:08:57;;;;;;;22.60;9.27;;;-3.20;99.90;;;;;;4385425;28;660128;-65
2022/12/13 13:11:46;;;;;;;12.40;4.97;;;-3.30;99.90;;;;;;4380539;28;659242;-66
2022/12/13 13:14:34;;;;;;;20.70;8.73;;;-3.60;99.90;;;;;;4409427;28;660632;-65
2022/12/13 13:17:52;;;;;;;17.20;5.90;;;-3.40;99.90;;;;;;4386895;28;659704;-66
2022/12/13 13:20:39;;;;;;;20.40;8.60;;;-3.30;99.90;;;;;;4321820;28;660188;-66
2022/12/13 13:23:26;;;;;;;21.63;8.87;;;-3.50;99.90;;;;;;4387308;28;659364;-66
2022/12/13 13:26:15;;;;;;;20.90;8.53;;;-3.50;99.90;;;;;;4409135;28;660455;-66
2022/12/13 13:29:29;;;;;;;23.57;8.60;;;-3.50;99.90;;;;;;4382052;28;661164;-67
2022/12/13 13:32:27;;;;;;;22.63;8.67;;;-3.40;99.90;;;;;;4381844;28;660395;-66
2022/12/13 13:35:49;;;;;;;20.03;8.07;;;-3.50;99.90;;;;;;4382772;28;660828;-66
2022/12/13 13:38:55;;;;;;;24.80;10.80;;;-3.40;99.90;;;;;;4386016;28;659906;-66
2022/12/13 13:42:16;;;;;;;25.65;10.50;;;-3.40;99.90;;;;;;4386830;28;660791;-66
2022/12/13 13:45:19;;;;;;;26.53;11.57;;;-3.40;99.90;;;;;;4380431;28;661313;-66
2022/12/13 13:48:27;;;;;;;22.50;9.97;;;-3.50;99.90;;;;;;4383811;28;662018;-67
2022/12/13 13:51:37;;;;;;;24.17;10.47;;;-3.60;99.90;;;;;;4395511;28;659290;-66
2022/12/13 13:55:03;;;;;;;26.53;10.57;;;-3.50;99.90;;;;;;4385967;28;660977;-66
2022/12/13 13:58:20;;;;;;;25.70;10.20;;;-3.60;99.90;;;;;;4372142;28;661566;-67
2022/12/13 14:01:33;;;;;;;24.60;10.93;;;-3.60;99.90;;;;;;4387111;28;661747;-66
2022/12/13 14:04:38;;;;;;;26.13;10.10;;;-3.80;99.90;;;;;;4378399;28;660776;-66
2022/12/13 14:07:55;;;;;;;25.27;9.15;;;-3.80;99.90;;;;;;4386995;28;660340;-67
2022/12/13 14:11:01;;;;;;;25.33;10.60;;;-4.00;99.90;;;;;;4361494;28;660254;-67
2022/12/13 14:14:37;;;;;;;26.10;9.83;;;-4.00;99.90;;;;;;4374202;28;661616;-67
2022/12/13 14:17:47;;;;;;;23.13;10.87;;;-4.10;99.90;;;;;;4380252;28;659944;-66
2022/12/13 14:20:44;;;;;;;25.83;10.60;;;-4.00;99.90;;;;;;4379349;28;661613;-66
2022/12/13 14:23:39;;;;;;;16.90;7.47;;;-4.00;99.90;;;;;;4363595;28;661238;-66
2022/12/13 14:26:44;;;;;;;16.67;7.73;;;-4.10;99.90;;;;;;4358901;28;660141;-66